sensor_id;sensor_type;location;lat;lon;timestamp;P1;P4;P2;P0;N10;N4;N25;N1;N05;TS
85288;SPS30;75692;48.224;16.338;2024-03-08T00:02:54;59.1;;61.6;54.5;;;;;;
85288;SPS30;75692;48.224;16.338;2024-03-08T00:07:54;58.9;;61.1;54.5;;;;;;
85288;SPS30;75692;48.224;16.338;2024-03-08T00:12:54;59.6;;61.7;55.2;;;;;;
85288;SPS30;75692;48.224;16.338;2024-03-08T00:17:54;56.4;;58.3;52.4;;;;;;
85288;SPS30;75692;48.224;16.338;2024-03-08T00:22:54;58.1;;60.7;53.4;;;;;;
85288;SPS30;75692;48.224;16.338;2024-03-08T00:27:54;57.1;;59.6;52.6;;;;;;
85288;SPS30;75692;48.224;16.338;2024-03-08T00:32:54;56.7;;58.6;52.5;;;;;;
85288;SPS30;75692;48.224;16.338;2024-03-08T00:37:54;58.3;;61.0;53.6;;;;;;
85288;SPS30;75692;48.224;16.338;2024-03-08T00:42:54;57.8;;60.0;53.5;;;;;;
85288;SPS30;75692;48.224;16.338;2024-03-08T00:47:54;60.5;;62.9;55.8;;;;;;
85288;SPS30;75692;48.224;16.338;2024-03-08T00:52:54;57.2;;59.4;52.9;;;;;;
85288;SPS30;75692;48.224;16.338;2024-03-08T00:57:54;54.7;;57.2;50.3;;;;;;
85288;SPS30;75692;48.224;16.338;2024-03-08T01:02:54;58.2;;60.8;53.5;;;;;;
85288;SPS30;75692;48.224;16.338;2024-03-08T01:07:54;59.1;;61.1;54.9;;;;;;
85288;SPS30;75692;48.224;16.338;2024-03-08T01:12:54;60.7;;62.7;56.4;;;;;;
85288;SPS30;75692;48.224;16.338;2024-03-08T01:17:54;58.4;;60.5;54.1;;;;;;
85288;SPS30;75692;48.224;16.338;2024-03-08T01:22:54;58.3;;60.3;54.1;;;;;;
85288;SPS30;75692;48.224;16.338;2024-03-08T01:27:54;60.1;;62.2;55.7;;;;;;
85288;SPS30;75692;48.224;16.338;2024-03-08T01:32:54;58.3;;60.5;54.0;;;;;;
85288;SPS30;75692;48.224;16.338;2024-03-08T01:37:54;60.5;;62.5;56.1;;;;;;
85288;SPS30;75692;48.224;16.338;2024-03-08T01:42:54;60.7;;63.0;56.1;;;;;;
85288;SPS30;75692;48.224;16.338;2024-03-08T01:47:54;60.3;;62.7;55.7;;;;;;
85288;SPS30;75692;48.224;16.338;2024-03-08T01:52:54;62.3;;64.7;57.5;;;;;;
85288;SPS30;75692;48.224;16.338;2024-03-08T01:57:54;61.3;;63.2;56.9;;;;;;
85288;SPS30;75692;48.224;16.338;2024-03-08T02:02:54;60.7;;62.4;56.5;;;;;;
85288;SPS30;75692;48.224;16.338;2024-03-08T02:07:54;61.4;;63.5;57.0;;;;;;
85288;SPS30;75692;48.224;16.338;2024-03-08T02:12:54;61.3;;63.6;56.7;;;;;;
85288;SPS30;75692;48.224;16.338;2024-03-08T02:17:54;59.9;;62.5;55.1;;;;;;
85288;SPS30;75692;48.224;16.338;2024-03-08T02:22:54;64.0;;66.6;59.1;;;;;;
85288;SPS30;75692;48.224;16.338;2024-03-08T02:27:54;61.2;;63.0;56.9;;;;;;
85288;SPS30;75692;48.224;16.338;2024-03-08T02:32:54;62.4;;64.7;57.8;;;;;;
85288;SPS30;75692;48.224;16.338;2024-03-08T02:37:55;61.6;;64.1;56.7;;;;;;
85288;SPS30;75692;48.224;16.338;2024-03-08T02:42:54;61.3;;64.0;56.4;;;;;;
85288;SPS30;75692;48.224;16.338;2024-03-08T02:47:54;62.6;;65.2;57.7;;;;;;
85288;SPS30;75692;48.224;16.338;2024-03-08T02:52:54;60.2;;62.0;56.0;;;;;;
85288;SPS30;75692;48.224;16.338;2024-03-08T02:57:54;60.8;;62.5;56.7;;;;;;
85288;SPS30;75692;48.224;16.338;2024-03-08T03:02:54;60.5;;62.6;56.1;;;;;;
85288;SPS30;75692;48.224;16.338;2024-03-08T03:07:55;61.7;;64.0;57.1;;;;;;
85288;SPS30;75692;48.224;16.338;2024-03-08T03:12:54;62.4;;65.0;57.5;;;;;;
85288;SPS30;75692;48.224;16.338;2024-03-08T03:17:54;61.5;;64.0;56.8;;;;;;
85288;SPS30;75692;48.224;16.338;2024-03-08T03:22:54;59.6;;62.1;54.9;;;;;;
85288;SPS30;75692;48.224;16.338;2024-03-08T03:27:54;64.0;;65.8;59.6;;;;;;
85288;SPS30;75692;48.224;16.338;2024-03-08T03:32:54;62.5;;64.5;58.1;;;;;;
85288;SPS30;75692;48.224;16.338;2024-03-08T03:37:54;61.4;;63.7;56.8;;;;;;
85288;SPS30;75692;48.224;16.338;2024-03-08T03:42:55;61.6;;64.0;56.9;;;;;;
85288;SPS30;75692;48.224;16.338;2024-03-08T03:47:55;60.8;;62.4;56.7;;;;;;
85288;SPS30;75692;48.224;16.338;2024-03-08T03:52:54;60.6;;62.5;56.3;;;;;;
85288;SPS30;75692;48.224;16.338;2024-03-08T03:57:55;62.6;;65.1;57.8;;;;;;
85288;SPS30;75692;48.224;16.338;2024-03-08T04:02:54;62.0;;64.2;57.4;;;;;;
85288;SPS30;75692;48.224;16.338;2024-03-08T04:07:54;61.3;;63.9;56.6;;;;;;
85288;SPS30;75692;48.224;16.338;2024-03-08T04:12:54;60.7;;63.2;56.0;;;;;;
85288;SPS30;75692;48.224;16.338;2024-03-08T04:17:54;59.9;;61.8;55.7;;;;;;
85288;SPS30;75692;48.224;16.338;2024-03-08T04:22:54;60.7;;62.8;56.3;;;;;;
85288;SPS30;75692;48.224;16.338;2024-03-08T04:27:54;61.1;;63.3;56.6;;;;;;
85288;SPS30;75692;48.224;16.338;2024-03-08T04:32:54;59.5;;62.4;54.5;;;;;;
85288;SPS30;75692;48.224;16.338;2024-03-08T04:37:54;58.8;;60.9;54.4;;;;;;
85288;SPS30;75692;48.224;16.338;2024-03-08T04:42:54;62.6;;64.9;57.9;;;;;;
85288;SPS30;75692;48.224;16.338;2024-03-08T04:47:54;62.0;;64.3;57.4;;;;;;
85288;SPS30;75692;48.224;16.338;2024-03-08T04:52:54;59.4;;61.8;54.9;;;;;;
85288;SPS30;75692;48.224;16.338;2024-03-08T04:57:54;62.8;;64.9;58.3;;;;;;
85288;SPS30;75692;48.224;16.338;2024-03-08T05:02:54;61.6;;64.4;56.6;;;;;;
85288;SPS30;75692;48.224;16.338;2024-03-08T05:07:54;60.8;;63.0;56.3;;;;;;
85288;SPS30;75692;48.224;16.338;2024-03-08T05:12:54;60.7;;62.9;56.1;;;;;;
85288;SPS30;75692;48.224;16.338;2024-03-08T05:17:54;64.3;;66.7;59.5;;;;;;
85288;SPS30;75692;48.224;16.338;2024-03-08T05:22:54;61.9;;63.9;57.5;;;;;;
85288;SPS30;75692;48.224;16.338;2024-03-08T05:27:54;60.6;;62.6;56.3;;;;;;
85288;SPS30;75692;48.224;16.338;2024-03-08T05:32:54;63.9;;66.4;58.9;;;;;;
85288;SPS30;75692;48.224;16.338;2024-03-08T05:37:54;63.5;;65.3;59.2;;;;;;
85288;SPS30;75692;48.224;16.338;2024-03-08T05:42:55;63.1;;65.8;58.1;;;;;;
85288;SPS30;75692;48.224;16.338;2024-03-08T05:47:54;61.3;;63.7;56.7;;;;;;
85288;SPS30;75692;48.224;16.338;2024-03-08T05:52:54;62.9;;65.1;58.4;;;;;;
85288;SPS30;75692;48.224;16.338;2024-03-08T05:57:54;62.6;;65.2;57.7;;;;;;
85288;SPS30;75692;48.224;16.338;2024-03-08T06:02:54;64.2;;66.3;59.5;;;;;;
85288;SPS30;75692;48.224;16.338;2024-03-08T06:07:54;65.1;;67.3;60.4;;;;;;
85288;SPS30;75692;48.224;16.338;2024-03-08T06:12:54;64.3;;66.3;59.8;;;;;;
85288;SPS30;75692;48.224;16.338;2024-03-08T06:17:55;64.8;;67.0;60.1;;;;;;
85288;SPS30;75692;48.224;16.338;2024-03-08T06:22:54;64.3;;65.9;60.1;;;;;;
85288;SPS30;75692;48.224;16.338;2024-03-08T06:27:55;64.5;;66.7;59.8;;;;;;
85288;SPS30;75692;48.224;16.338;2024-03-08T06:32:54;63.3;;65.2;58.9;;;;;;
85288;SPS30;75692;48.224;16.338;2024-03-08T06:37:54;64.0;;66.9;58.9;;;;;;
85288;SPS30;75692;48.224;16.338;2024-03-08T06:42:54;67.5;;70.3;62.3;;;;;;
85288;SPS30;75692;48.224;16.338;2024-03-08T06:47:55;64.9;;67.1;60.1;;;;;;
85288;SPS30;75692;48.224;16.338;2024-03-08T06:52:55;61.0;;63.8;55.9;;;;;;
85288;SPS30;75692;48.224;16.338;2024-03-08T06:57:55;64.3;;66.4;59.6;;;;;;
85288;SPS30;75692;48.224;16.338;2024-03-08T07:02:55;61.6;;64.2;56.8;;;;;;
85288;SPS30;75692;48.224;16.338;2024-03-08T07:07:54;63.8;;66.7;58.5;;;;;;
85288;SPS30;75692;48.224;16.338;2024-03-08T07:12:55;64.4;;66.1;60.0;;;;;;
85288;SPS30;75692;48.224;16.338;2024-03-08T07:17:54;64.9;;67.6;59.8;;;;;;
85288;SPS30;75692;48.224;16.338;2024-03-08T07:22:55;65.3;;67.6;60.6;;;;;;
85288;SPS30;75692;48.224;16.338;2024-03-08T07:27:55;63.3;;64.9;59.1;;;;;;
85288;SPS30;75692;48.224;16.338;2024-03-08T07:32:54;65.7;;68.1;60.9;;;;;;
85288;SPS30;75692;48.224;16.338;2024-03-08T07:37:55;64.9;;67.6;59.8;;;;;;
85288;SPS30;75692;48.224;16.338;2024-03-08T07:42:55;65.7;;68.4;60.6;;;;;;
85288;SPS30;75692;48.224;16.338;2024-03-08T07:47:55;67.0;;69.5;62.1;;;;;;
85288;SPS30;75692;48.224;16.338;2024-03-08T07:52:55;66.0;;68.8;60.8;;;;;;
85288;SPS30;75692;48.224;16.338;2024-03-08T07:57:55;65.8;;68.8;60.5;;;;;;
85288;SPS30;75692;48.224;16.338;2024-03-08T08:02:55;62.0;;64.4;57.3;;;;;;
85288;SPS30;75692;48.224;16.338;2024-03-08T08:07:55;63.2;;65.8;58.3;;;;;;
85288;SPS30;75692;48.224;16.338;2024-03-08T08:12:55;61.1;;63.2;56.6;;;;;;
85288;SPS30;75692;48.224;16.338;2024-03-08T08:17:55;59.6;;61.8;55.2;;;;;;
85288;SPS30;75692;48.224;16.338;2024-03-08T08:22:55;60.3;;62.3;56.0;;;;;;
85288;SPS30;75692;48.224;16.338;2024-03-08T08:27:55;61.4;;63.4;57.0;;;;;;
85288;SPS30;75692;48.224;16.338;2024-03-08T08:32:55;66.5;;67.9;62.4;;;;;;
85288;SPS30;75692;48.224;16.338;2024-03-08T08:37:55;62.4;;64.2;58.2;;;;;;
85288;SPS30;75692;48.224;16.338;2024-03-08T08:42:55;63.5;;65.8;58.7;;;;;;
85288;SPS30;75692;48.224;16.338;2024-03-08T08:47:55;62.7;;64.3;58.5;;;;;;
85288;SPS30;75692;48.224;16.338;2024-03-08T08:52:55;60.9;;62.9;56.5;;;;;;
85288;SPS30;75692;48.224;16.338;2024-03-08T08:57:55;60.6;;62.9;56.1;;;;;;
85288;SPS30;75692;48.224;16.338;2024-03-08T09:02:55;63.7;;65.6;59.2;;;;;;
85288;SPS30;75692;48.224;16.338;2024-03-08T09:07:55;65.5;;68.0;60.6;;;;;;
85288;SPS30;75692;48.224;16.338;2024-03-08T09:12:55;62.9;;65.0;58.5;;;;;;
85288;SPS30;75692;48.224;16.338;2024-03-08T09:17:55;62.6;;63.8;58.7;;;;;;
85288;SPS30;75692;48.224;16.338;2024-03-08T09:22:55;64.5;;66.6;59.9;;;;;;
85288;SPS30;75692;48.224;16.338;2024-03-08T09:27:55;62.7;;64.5;58.5;;;;;;
85288;SPS30;75692;48.224;16.338;2024-03-08T09:32:55;61.6;;63.7;57.2;;;;;;
85288;SPS30;75692;48.224;16.338;2024-03-08T09:37:55;56.9;;58.0;53.3;;;;;;
85288;SPS30;75692;48.224;16.338;2024-03-08T09:42:55;58.7;;60.3;54.8;;;;;;
85288;SPS30;75692;48.224;16.338;2024-03-08T09:47:55;51.9;;52.8;48.7;;;;;;
85288;SPS30;75692;48.224;16.338;2024-03-08T09:52:55;51.9;;52.9;48.7;;;;;;
85288;SPS30;75692;48.224;16.338;2024-03-08T09:57:55;53.3;;55.1;49.4;;;;;;
85288;SPS30;75692;48.224;16.338;2024-03-08T10:03:00;49.3;;50.3;46.2;;;;;;
85288;SPS30;75692;48.224;16.338;2024-03-08T10:07:55;53.6;;54.9;50.2;;;;;;
85288;SPS30;75692;48.224;16.338;2024-03-08T10:12:55;57.6;;60.0;53.0;;;;;;
85288;SPS30;75692;48.224;16.338;2024-03-08T10:17:56;53.5;;54.7;50.1;;;;;;
85288;SPS30;75692;48.224;16.338;2024-03-08T10:22:55;48.7;;50.0;45.4;;;;;;
85288;SPS30;75692;48.224;16.338;2024-03-08T10:27:55;50.4;;51.8;46.9;;;;;;
85288;SPS30;75692;48.224;16.338;2024-03-08T10:32:55;46.9;;48.3;43.7;;;;;;
85288;SPS30;75692;48.224;16.338;2024-03-08T10:37:55;47.1;;47.9;44.3;;;;;;
85288;SPS30;75692;48.224;16.338;2024-03-08T10:42:55;41.2;;42.2;38.5;;;;;;
85288;SPS30;75692;48.224;16.338;2024-03-08T10:47:55;39.9;;41.0;37.3;;;;;;
85288;SPS30;75692;48.224;16.338;2024-03-08T10:52:55;40.7;;42.0;37.7;;;;;;
85288;SPS30;75692;48.224;16.338;2024-03-08T10:57:55;41.5;;42.9;38.5;;;;;;
85288;SPS30;75692;48.224;16.338;2024-03-08T11:02:55;41.6;;42.9;38.6;;;;;;
85288;SPS30;75692;48.224;16.338;2024-03-08T11:07:55;37.5;;38.4;35.0;;;;;;
85288;SPS30;75692;48.224;16.338;2024-03-08T11:12:55;37.8;;38.4;35.6;;;;;;
85288;SPS30;75692;48.224;16.338;2024-03-08T11:17:58;37.1;;38.3;34.5;;;;;;
85288;SPS30;75692;48.224;16.338;2024-03-08T11:22:55;38.1;;38.9;35.8;;;;;;
85288;SPS30;75692;48.224;16.338;2024-03-08T11:28:01;31.0;;32.0;28.7;;;;;;
85288;SPS30;75692;48.224;16.338;2024-03-08T11:32:55;23.6;;23.7;22.5;;;;;;
85288;SPS30;75692;48.224;16.338;2024-03-08T11:37:55;41.5;;42.6;38.7;;;;;;
85288;SPS30;75692;48.224;16.338;2024-03-08T11:42:55;41.0;;42.0;38.3;;;;;;
85288;SPS30;75692;48.224;16.338;2024-03-08T11:47:55;37.3;;38.5;34.6;;;;;;
85288;SPS30;75692;48.224;16.338;2024-03-08T11:52:59;35.7;;36.8;33.1;;;;;;
85288;SPS30;75692;48.224;16.338;2024-03-08T11:58:00;32.1;;33.1;29.9;;;;;;
85288;SPS30;75692;48.224;16.338;2024-03-08T12:07:57;29.6;;29.6;28.1;;;;;;
85288;SPS30;75692;48.224;16.338;2024-03-08T12:12:55;29.0;;29.9;26.9;;;;;;
85288;SPS30;75692;48.224;16.338;2024-03-08T12:17:55;22.2;;23.2;20.4;;;;;;
85288;SPS30;75692;48.224;16.338;2024-03-08T12:22:55;21.4;;21.6;20.3;;;;;;
85288;SPS30;75692;48.224;16.338;2024-03-08T12:27:55;20.7;;21.2;19.5;;;;;;
85288;SPS30;75692;48.224;16.338;2024-03-08T12:32:56;22.9;;23.3;21.6;;;;;;
85288;SPS30;75692;48.224;16.338;2024-03-08T12:37:55;25.5;;26.4;23.6;;;;;;
85288;SPS30;75692;48.224;16.338;2024-03-08T12:42:55;23.6;;23.7;22.5;;;;;;
85288;SPS30;75692;48.224;16.338;2024-03-08T12:47:55;24.3;;25.3;22.5;;;;;;
85288;SPS30;75692;48.224;16.338;2024-03-08T12:52:55;23.8;;24.6;22.1;;;;;;
85288;SPS30;75692;48.224;16.338;2024-03-08T12:57:55;24.0;;24.5;22.5;;;;;;
85288;SPS30;75692;48.224;16.338;2024-03-08T13:02:55;22.8;;23.5;21.2;;;;;;
85288;SPS30;75692;48.224;16.338;2024-03-08T13:07:55;22.2;;22.5;21.0;;;;;;
85288;SPS30;75692;48.224;16.338;2024-03-08T13:12:55;21.8;;22.2;20.4;;;;;;
85288;SPS30;75692;48.224;16.338;2024-03-08T13:17:55;21.3;;21.3;20.3;;;;;;
85288;SPS30;75692;48.224;16.338;2024-03-08T13:22:55;21.5;;21.5;20.5;;;;;;
85288;SPS30;75692;48.224;16.338;2024-03-08T13:27:55;22.5;;23.5;20.7;;;;;;
85288;SPS30;75692;48.224;16.338;2024-03-08T13:32:55;17.5;;17.6;16.7;;;;;;
85288;SPS30;75692;48.224;16.338;2024-03-08T13:37:55;19.1;;19.2;18.1;;;;;;
85288;SPS30;75692;48.224;16.338;2024-03-08T13:42:55;22.0;;22.3;20.7;;;;;;
85288;SPS30;75692;48.224;16.338;2024-03-08T13:47:55;21.2;;21.5;19.9;;;;;;
85288;SPS30;75692;48.224;16.338;2024-03-08T13:52:55;21.0;;21.0;20.0;;;;;;
85288;SPS30;75692;48.224;16.338;2024-03-08T13:57:55;22.8;;22.9;21.7;;;;;;
85288;SPS30;75692;48.224;16.338;2024-03-08T14:02:55;22.0;;22.5;20.7;;;;;;
85288;SPS30;75692;48.224;16.338;2024-03-08T14:07:55;22.1;;22.8;20.5;;;;;;
85288;SPS30;75692;48.224;16.338;2024-03-08T14:12:55;22.5;;23.4;20.9;;;;;;
85288;SPS30;75692;48.224;16.338;2024-03-08T14:17:55;22.1;;22.1;21.0;;;;;;
85288;SPS30;75692;48.224;16.338;2024-03-08T14:22:55;22.5;;22.5;21.4;;;;;;
85288;SPS30;75692;48.224;16.338;2024-03-08T14:27:55;22.1;;22.3;20.9;;;;;;
85288;SPS30;75692;48.224;16.338;2024-03-08T14:32:55;22.2;;22.3;21.2;;;;;;
85288;SPS30;75692;48.224;16.338;2024-03-08T14:37:55;23.6;;24.3;21.9;;;;;;
85288;SPS30;75692;48.224;16.338;2024-03-08T14:42:55;23.0;;23.3;21.8;;;;;;
85288;SPS30;75692;48.224;16.338;2024-03-08T14:47:55;22.2;;22.4;21.1;;;;;;
85288;SPS30;75692;48.224;16.338;2024-03-08T14:52:55;23.1;;23.9;21.4;;;;;;
85288;SPS30;75692;48.224;16.338;2024-03-08T14:57:55;23.8;;23.9;22.6;;;;;;
85288;SPS30;75692;48.224;16.338;2024-03-08T15:02:55;24.1;;24.1;23.0;;;;;;
85288;SPS30;75692;48.224;16.338;2024-03-08T15:07:55;25.6;;26.8;23.5;;;;;;
85288;SPS30;75692;48.224;16.338;2024-03-08T15:12:55;24.2;;25.0;22.4;;;;;;
85288;SPS30;75692;48.224;16.338;2024-03-08T15:17:55;24.9;;25.9;23.0;;;;;;
85288;SPS30;75692;48.224;16.338;2024-03-08T15:22:55;22.7;;23.1;21.4;;;;;;
85288;SPS30;75692;48.224;16.338;2024-03-08T15:27:55;23.3;;24.1;21.6;;;;;;
85288;SPS30;75692;48.224;16.338;2024-03-08T15:32:55;26.3;;27.0;24.5;;;;;;
85288;SPS30;75692;48.224;16.338;2024-03-08T15:37:55;24.5;;25.4;22.6;;;;;;
85288;SPS30;75692;48.224;16.338;2024-03-08T15:42:55;24.8;;25.7;22.9;;;;;;
85288;SPS30;75692;48.224;16.338;2024-03-08T15:47:55;26.0;;26.4;24.5;;;;;;
85288;SPS30;75692;48.224;16.338;2024-03-08T15:52:55;25.0;;25.9;23.2;;;;;;
85288;SPS30;75692;48.224;16.338;2024-03-08T15:57:55;23.4;;23.8;22.1;;;;;;
85288;SPS30;75692;48.224;16.338;2024-03-08T16:02:55;25.5;;26.7;23.5;;;;;;
85288;SPS30;75692;48.224;16.338;2024-03-08T16:07:55;24.6;;25.0;23.2;;;;;;
85288;SPS30;75692;48.224;16.338;2024-03-08T16:12:55;23.6;;23.7;22.4;;;;;;
85288;SPS30;75692;48.224;16.338;2024-03-08T16:17:55;23.4;;23.4;22.3;;;;;;
85288;SPS30;75692;48.224;16.338;2024-03-08T16:22:55;23.2;;24.1;21.4;;;;;;
85288;SPS30;75692;48.224;16.338;2024-03-08T16:27:55;25.5;;26.7;23.4;;;;;;
85288;SPS30;75692;48.224;16.338;2024-03-08T16:32:55;26.3;;26.7;24.7;;;;;;
85288;SPS30;75692;48.224;16.338;2024-03-08T16:37:55;24.5;;24.5;23.3;;;;;;
85288;SPS30;75692;48.224;16.338;2024-03-08T16:42:55;22.4;;22.4;21.3;;;;;;
85288;SPS30;75692;48.224;16.338;2024-03-08T16:47:55;24.9;;24.9;23.7;;;;;;
85288;SPS30;75692;48.224;16.338;2024-03-08T16:52:55;25.1;;25.4;23.8;;;;;;
85288;SPS30;75692;48.224;16.338;2024-03-08T16:57:55;23.1;;23.1;22.0;;;;;;
85288;SPS30;75692;48.224;16.338;2024-03-08T17:02:55;24.3;;24.4;23.1;;;;;;
85288;SPS30;75692;48.224;16.338;2024-03-08T17:07:55;23.8;;25.0;21.8;;;;;;
85288;SPS30;75692;48.224;16.338;2024-03-08T17:12:55;22.9;;23.0;21.8;;;;;;
85288;SPS30;75692;48.224;16.338;2024-03-08T17:17:55;23.9;;24.3;22.4;;;;;;
85288;SPS30;75692;48.224;16.338;2024-03-08T17:22:55;23.3;;23.4;22.2;;;;;;
85288;SPS30;75692;48.224;16.338;2024-03-08T17:27:55;23.1;;23.2;21.9;;;;;;
85288;SPS30;75692;48.224;16.338;2024-03-08T17:32:56;22.7;;22.9;21.4;;;;;;
85288;SPS30;75692;48.224;16.338;2024-03-08T17:37:55;23.5;;24.3;21.8;;;;;;
85288;SPS30;75692;48.224;16.338;2024-03-08T17:42:56;22.2;;23.0;20.5;;;;;;
85288;SPS30;75692;48.224;16.338;2024-03-08T17:47:55;21.5;;21.8;20.3;;;;;;
85288;SPS30;75692;48.224;16.338;2024-03-08T17:52:55;22.5;;22.6;21.4;;;;;;
85288;SPS30;75692;48.224;16.338;2024-03-08T17:57:55;22.3;;23.0;20.7;;;;;;
85288;SPS30;75692;48.224;16.338;2024-03-08T18:02:55;20.2;;20.3;19.2;;;;;;
85288;SPS30;75692;48.224;16.338;2024-03-08T18:07:55;21.5;;22.4;19.8;;;;;;
85288;SPS30;75692;48.224;16.338;2024-03-08T18:12:56;22.6;;22.9;21.4;;;;;;
85288;SPS30;75692;48.224;16.338;2024-03-08T18:17:55;21.6;;22.5;19.8;;;;;;
85288;SPS30;75692;48.224;16.338;2024-03-08T18:22:55;20.7;;20.7;19.7;;;;;;
85288;SPS30;75692;48.224;16.338;2024-03-08T18:27:55;22.5;;22.5;21.4;;;;;;
85288;SPS30;75692;48.224;16.338;2024-03-08T18:32:55;22.0;;22.2;20.8;;;;;;
85288;SPS30;75692;48.224;16.338;2024-03-08T18:37:55;22.1;;22.4;20.9;;;;;;
85288;SPS30;75692;48.224;16.338;2024-03-08T18:42:55;22.2;;23.5;20.2;;;;;;
85288;SPS30;75692;48.224;16.338;2024-03-08T18:47:55;23.0;;23.7;21.4;;;;;;
85288;SPS30;75692;48.224;16.338;2024-03-08T18:52:55;21.9;;21.9;20.9;;;;;;
85288;SPS30;75692;48.224;16.338;2024-03-08T18:57:55;24.0;;25.1;22.1;;;;;;
85288;SPS30;75692;48.224;16.338;2024-03-08T19:02:55;23.5;;24.1;22.0;;;;;;
85288;SPS30;75692;48.224;16.338;2024-03-08T19:07:55;23.2;;24.1;21.4;;;;;;
85288;SPS30;75692;48.224;16.338;2024-03-08T19:12:55;20.9;;20.9;20.0;;;;;;
85288;SPS30;75692;48.224;16.338;2024-03-08T19:17:55;22.8;;23.7;21.0;;;;;;
85288;SPS30;75692;48.224;16.338;2024-03-08T19:22:56;22.5;;23.7;20.4;;;;;;
85288;SPS30;75692;48.224;16.338;2024-03-08T19:27:55;23.1;;23.4;21.8;;;;;;
85288;SPS30;75692;48.224;16.338;2024-03-08T19:32:55;21.8;;22.0;20.6;;;;;;
85288;SPS30;75692;48.224;16.338;2024-03-08T19:37:56;22.7;;22.8;21.5;;;;;;
85288;SPS30;75692;48.224;16.338;2024-03-08T19:42:55;22.2;;23.0;20.5;;;;;;
85288;SPS30;75692;48.224;16.338;2024-03-08T19:47:57;21.3;;21.5;20.2;;;;;;
85288;SPS30;75692;48.224;16.338;2024-03-08T19:52:55;24.7;;25.6;22.9;;;;;;
85288;SPS30;75692;48.224;16.338;2024-03-08T19:57:55;24.2;;25.3;22.2;;;;;;
85288;SPS30;75692;48.224;16.338;2024-03-08T20:02:55;25.3;;26.3;23.4;;;;;;
85288;SPS30;75692;48.224;16.338;2024-03-08T20:07:55;26.0;;26.0;24.7;;;;;;
85288;SPS30;75692;48.224;16.338;2024-03-08T20:12:56;26.8;;27.1;25.4;;;;;;
85288;SPS30;75692;48.224;16.338;2024-03-08T20:17:55;25.2;;26.2;23.2;;;;;;
85288;SPS30;75692;48.224;16.338;2024-03-08T20:22:55;26.0;;26.0;24.8;;;;;;
85288;SPS30;75692;48.224;16.338;2024-03-08T20:27:56;27.3;;28.2;25.4;;;;;;
85288;SPS30;75692;48.224;16.338;2024-03-08T20:32:55;24.7;;25.9;22.7;;;;;;
85288;SPS30;75692;48.224;16.338;2024-03-08T20:37:55;26.9;;27.8;25.0;;;;;;
85288;SPS30;75692;48.224;16.338;2024-03-08T20:42:55;26.1;;26.9;24.2;;;;;;
85288;SPS30;75692;48.224;16.338;2024-03-08T20:47:55;30.3;;30.9;28.4;;;;;;
85288;SPS30;75692;48.224;16.338;2024-03-08T20:52:55;27.8;;28.8;25.7;;;;;;
85288;SPS30;75692;48.224;16.338;2024-03-08T20:57:55;28.4;;29.1;26.5;;;;;;
85288;SPS30;75692;48.224;16.338;2024-03-08T21:02:55;27.4;;27.5;26.1;;;;;;
85288;SPS30;75692;48.224;16.338;2024-03-08T21:07:55;27.8;;28.4;26.1;;;;;;
85288;SPS30;75692;48.224;16.338;2024-03-08T21:12:55;28.3;;29.6;25.9;;;;;;
85288;SPS30;75692;48.224;16.338;2024-03-08T21:17:55;29.0;;30.0;27.0;;;;;;
85288;SPS30;75692;48.224;16.338;2024-03-08T21:22:55;31.3;;32.4;28.9;;;;;;
85288;SPS30;75692;48.224;16.338;2024-03-08T21:27:57;31.3;;32.0;29.3;;;;;;
85288;SPS30;75692;48.224;16.338;2024-03-08T21:32:55;28.2;;29.3;26.1;;;;;;
85288;SPS30;75692;48.224;16.338;2024-03-08T21:37:55;30.5;;31.8;28.2;;;;;;
85288;SPS30;75692;48.224;16.338;2024-03-08T21:42:55;31.2;;31.9;29.3;;;;;;
85288;SPS30;75692;48.224;16.338;2024-03-08T21:47:55;30.2;;31.4;27.8;;;;;;
85288;SPS30;75692;48.224;16.338;2024-03-08T21:52:55;30.0;;31.1;27.8;;;;;;
85288;SPS30;75692;48.224;16.338;2024-03-08T21:57:55;32.0;;32.9;29.8;;;;;;
85288;SPS30;75692;48.224;16.338;2024-03-08T22:02:55;30.3;;31.8;27.8;;;;;;
85288;SPS30;75692;48.224;16.338;2024-03-08T22:07:55;30.6;;31.7;28.4;;;;;;
85288;SPS30;75692;48.224;16.338;2024-03-08T22:12:55;29.3;;30.4;27.1;;;;;;
85288;SPS30;75692;48.224;16.338;2024-03-08T22:17:55;29.9;;30.7;28.0;;;;;;
85288;SPS30;75692;48.224;16.338;2024-03-08T22:22:55;31.8;;32.1;30.2;;;;;;
85288;SPS30;75692;48.224;16.338;2024-03-08T22:27:55;30.8;;31.9;28.5;;;;;;
85288;SPS30;75692;48.224;16.338;2024-03-08T22:32:55;30.8;;31.9;28.5;;;;;;
85288;SPS30;75692;48.224;16.338;2024-03-08T22:37:55;30.1;;30.1;28.7;;;;;;
85288;SPS30;75692;48.224;16.338;2024-03-08T22:42:55;31.6;;32.7;29.3;;;;;;
85288;SPS30;75692;48.224;16.338;2024-03-08T22:47:55;30.9;;30.9;29.5;;;;;;
85288;SPS30;75692;48.224;16.338;2024-03-08T22:52:55;31.0;;32.0;28.9;;;;;;
85288;SPS30;75692;48.224;16.338;2024-03-08T22:57:55;30.3;;30.7;28.5;;;;;;
85288;SPS30;75692;48.224;16.338;2024-03-08T23:02:55;31.7;;32.4;29.7;;;;;;
85288;SPS30;75692;48.224;16.338;2024-03-08T23:07:55;31.0;;32.0;28.8;;;;;;
85288;SPS30;75692;48.224;16.338;2024-03-08T23:12:55;31.3;;32.4;29.1;;;;;;
85288;SPS30;75692;48.224;16.338;2024-03-08T23:17:55;31.9;;33.0;29.6;;;;;;
85288;SPS30;75692;48.224;16.338;2024-03-08T23:22:55;31.8;;32.9;29.5;;;;;;
85288;SPS30;75692;48.224;16.338;2024-03-08T23:27:56;34.3;;35.7;31.6;;;;;;
85288;SPS30;75692;48.224;16.338;2024-03-08T23:32:55;30.7;;30.7;29.2;;;;;;
85288;SPS30;75692;48.224;16.338;2024-03-08T23:37:55;30.4;;31.5;28.1;;;;;;
85288;SPS30;75692;48.224;16.338;2024-03-08T23:42:55;32.2;;32.7;30.3;;;;;;
85288;SPS30;75692;48.224;16.338;2024-03-08T23:47:56;30.3;;31.1;28.3;;;;;;
85288;SPS30;75692;48.224;16.338;2024-03-08T23:52:56;29.7;;30.9;27.4;;;;;;
85288;SPS30;75692;48.224;16.338;2024-03-08T23:57:55;28.7;;28.8;27.4;;;;;;
